sensor_id;sensor_type;location;lat;lon;timestamp;temperature;humidity
67502;SHT30;54349;52.528;19.760;2022-09-03T00:00:53;23.77;48.57
67502;SHT30;54349;52.528;19.760;2022-09-03T00:03:33;23.80;48.24
67502;SHT30;54349;52.528;19.760;2022-09-03T00:09:01;23.58;48.56
67502;SHT30;54349;52.528;19.760;2022-09-03T00:11:52;23.62;48.52
67502;SHT30;54349;52.528;19.760;2022-09-03T00:14:33;23.67;48.41
67502;SHT30;54349;52.528;19.760;2022-09-03T00:17:18;23.72;48.34
67502;SHT30;54349;52.528;19.760;2022-09-03T00:19:53;23.72;47.93
67502;SHT30;54349;52.528;19.760;2022-09-03T00:22:29;23.53;48.46
67502;SHT30;54349;52.528;19.760;2022-09-03T00:25:06;23.51;48.46
67502;SHT30;54349;52.528;19.760;2022-09-03T00:27:41;23.55;48.40
67502;SHT30;54349;52.528;19.760;2022-09-03T00:30:14;23.59;48.35
67502;SHT30;54349;52.528;19.760;2022-09-03T00:35:51;23.68;48.11
67502;SHT30;54349;52.528;19.760;2022-09-03T00:38:40;23.52;48.16
67502;SHT30;54349;52.528;19.760;2022-09-03T00:41:18;23.44;48.32
67502;SHT30;54349;52.528;19.760;2022-09-03T00:49:50;23.57;48.22
67502;SHT30;54349;52.528;19.760;2022-09-03T00:52:52;23.60;48.06
67502;SHT30;54349;52.528;19.760;2022-09-03T01:13:34;23.42;47.88
67502;SHT30;54349;52.528;19.760;2022-09-03T01:31:06;23.46;47.72
67502;SHT30;54349;52.528;19.760;2022-09-03T01:33:55;23.27;48.06
67502;SHT30;54349;52.528;19.760;2022-09-03T01:39:27;23.27;48.15
67502;SHT30;54349;52.528;19.760;2022-09-03T01:51:10;23.41;47.69
67502;SHT30;54349;52.528;19.760;2022-09-03T02:02:41;23.27;48.02
67502;SHT30;54349;52.528;19.760;2022-09-03T02:05:19;23.31;48.00
67502;SHT30;54349;52.528;19.760;2022-09-03T02:13:16;23.35;47.57
67502;SHT30;54349;52.528;19.760;2022-09-03T02:15:49;23.17;47.98
67502;SHT30;54349;52.528;19.760;2022-09-03T02:18:28;23.14;48.04
67502;SHT30;54349;52.528;19.760;2022-09-03T02:21:03;23.18;48.03
67502;SHT30;54349;52.528;19.760;2022-09-03T02:23:33;23.22;48.00
67502;SHT30;54349;52.528;19.760;2022-09-03T02:26:02;23.24;47.97
67502;SHT30;54349;52.528;19.760;2022-09-03T02:28:30;23.27;47.96
67502;SHT30;54349;52.528;19.760;2022-09-03T02:31:00;23.30;47.91
67502;SHT30;54349;52.528;19.760;2022-09-03T02:33:29;23.32;47.77
67502;SHT30;54349;52.528;19.760;2022-09-03T02:36:05;23.23;47.59
67502;SHT30;54349;52.528;19.760;2022-09-03T02:38:39;23.09;47.96
67502;SHT30;54349;52.528;19.760;2022-09-03T02:41:09;23.10;48.00
67502;SHT30;54349;52.528;19.760;2022-09-03T02:43:49;23.14;47.99
67502;SHT30;54349;52.528;19.760;2022-09-03T02:46:32;23.17;47.95
67502;SHT30;54349;52.528;19.760;2022-09-03T02:49:10;23.20;47.90
67502;SHT30;54349;52.528;19.760;2022-09-03T02:51:40;23.24;47.89
67502;SHT30;54349;52.528;19.760;2022-09-03T02:54:11;23.26;47.83
67502;SHT30;54349;52.528;19.760;2022-09-03T02:56:45;23.28;47.77
67502;SHT30;54349;52.528;19.760;2022-09-03T02:59:14;23.21;47.43
67502;SHT30;54349;52.528;19.760;2022-09-03T03:01:44;23.06;47.85
67502;SHT30;54349;52.528;19.760;2022-09-03T03:04:13;23.07;47.90
67502;SHT30;54349;52.528;19.760;2022-09-03T03:06:42;23.10;47.90
67502;SHT30;54349;52.528;19.760;2022-09-03T03:09:14;23.12;47.85
67502;SHT30;54349;52.528;19.760;2022-09-03T03:11:42;23.15;47.80
67502;SHT30;54349;52.528;19.760;2022-09-03T03:14:10;23.18;47.81
67502;SHT30;54349;52.528;19.760;2022-09-03T03:16:38;23.21;47.77
67502;SHT30;54349;52.528;19.760;2022-09-03T03:19:07;23.23;47.73
67502;SHT30;54349;52.528;19.760;2022-09-03T03:21:35;23.25;47.63
67502;SHT30;54349;52.528;19.760;2022-09-03T03:24:03;23.16;47.31
67502;SHT30;54349;52.528;19.760;2022-09-03T03:26:33;23.02;47.74
67502;SHT30;54349;52.528;19.760;2022-09-03T03:29:02;23.02;47.81
67502;SHT30;54349;52.528;19.760;2022-09-03T03:31:31;23.05;47.80
67502;SHT30;54349;52.528;19.760;2022-09-03T03:34:01;23.08;47.79
67502;SHT30;54349;52.528;19.760;2022-09-03T03:36:31;23.11;47.73
67502;SHT30;54349;52.528;19.760;2022-09-03T03:39:00;23.13;47.71
67502;SHT30;54349;52.528;19.760;2022-09-03T03:41:30;23.15;47.69
67502;SHT30;54349;52.528;19.760;2022-09-03T03:44:02;23.18;47.67
67502;SHT30;54349;52.528;19.760;2022-09-03T03:46:34;23.20;47.67
67502;SHT30;54349;52.528;19.760;2022-09-03T03:49:05;23.20;47.35
67502;SHT30;54349;52.528;19.760;2022-09-03T03:51:36;23.05;47.55
67502;SHT30;54349;52.528;19.760;2022-09-03T03:54:05;22.98;47.73
67502;SHT30;54349;52.528;19.760;2022-09-03T03:56:33;23.01;47.78
67502;SHT30;54349;52.528;19.760;2022-09-03T03:59:02;23.03;47.72
67502;SHT30;54349;52.528;19.760;2022-09-03T04:01:31;23.07;47.70
67502;SHT30;54349;52.528;19.760;2022-09-03T04:03:59;23.08;47.70
67502;SHT30;54349;52.528;19.760;2022-09-03T04:06:27;23.11;47.68
67502;SHT30;54349;52.528;19.760;2022-09-03T04:08:56;23.13;47.66
67502;SHT30;54349;52.528;19.760;2022-09-03T04:11:24;23.15;47.63
67502;SHT30;54349;52.528;19.760;2022-09-03T04:13:52;23.17;47.60
67502;SHT30;54349;52.528;19.760;2022-09-03T04:16:23;23.18;47.32
67502;SHT30;54349;52.528;19.760;2022-09-03T04:18:54;23.05;46.97
67502;SHT30;54349;52.528;19.760;2022-09-03T04:21:27;22.92;47.49
67502;SHT30;54349;52.528;19.760;2022-09-03T04:23:57;22.92;47.60
67502;SHT30;54349;52.528;19.760;2022-09-03T04:26:29;22.95;47.58
67502;SHT30;54349;52.528;19.760;2022-09-03T04:29:04;22.98;47.54
67502;SHT30;54349;52.528;19.760;2022-09-03T04:31:35;23.01;47.51
67502;SHT30;54349;52.528;19.760;2022-09-03T04:34:06;23.03;47.53
67502;SHT30;54349;52.528;19.760;2022-09-03T04:36:34;23.05;47.56
67502;SHT30;54349;52.528;19.760;2022-09-03T04:39:03;23.07;47.54
67502;SHT30;54349;52.528;19.760;2022-09-03T04:41:32;23.09;47.51
67502;SHT30;54349;52.528;19.760;2022-09-03T04:44:00;23.10;47.49
67502;SHT30;54349;52.528;19.760;2022-09-03T04:46:28;23.13;47.50
67502;SHT30;54349;52.528;19.760;2022-09-03T04:49:01;23.11;47.15
67502;SHT30;54349;52.528;19.760;2022-09-03T04:51:29;22.95;47.56
67502;SHT30;54349;52.528;19.760;2022-09-03T04:53:59;22.92;47.68
67502;SHT30;54349;52.528;19.760;2022-09-03T04:56:33;22.94;47.69
67502;SHT30;54349;52.528;19.760;2022-09-03T04:59:03;22.97;47.68
67502;SHT30;54349;52.528;19.760;2022-09-03T05:01:36;23.00;47.68
67502;SHT30;54349;52.528;19.760;2022-09-03T05:04:06;23.02;47.62
67502;SHT30;54349;52.528;19.760;2022-09-03T05:06:35;23.03;47.61
67502;SHT30;54349;52.528;19.760;2022-09-03T05:09:05;23.06;47.60
67502;SHT30;54349;52.528;19.760;2022-09-03T05:11:33;23.08;47.61
67502;SHT30;54349;52.528;19.760;2022-09-03T05:14:02;23.09;47.59
67502;SHT30;54349;52.528;19.760;2022-09-03T05:16:32;23.11;47.55
67502;SHT30;54349;52.528;19.760;2022-09-03T05:19:00;23.14;47.51
67502;SHT30;54349;52.528;19.760;2022-09-03T05:21:32;23.06;47.40
67502;SHT30;54349;52.528;19.760;2022-09-03T05:24:04;22.92;47.74
67502;SHT30;54349;52.528;19.760;2022-09-03T05:26:36;22.93;47.80
67502;SHT30;54349;52.528;19.760;2022-09-03T05:29:06;22.95;47.80
67502;SHT30;54349;52.528;19.760;2022-09-03T05:31:35;22.98;47.77
67502;SHT30;54349;52.528;19.760;2022-09-03T05:34:06;23.01;47.75
67502;SHT30;54349;52.528;19.760;2022-09-03T05:36:43;23.03;47.73
67502;SHT30;54349;52.528;19.760;2022-09-03T05:39:12;23.05;47.71
67502;SHT30;54349;52.528;19.760;2022-09-03T05:41:41;23.06;47.70
67502;SHT30;54349;52.528;19.760;2022-09-03T05:44:09;23.09;47.67
67502;SHT30;54349;52.528;19.760;2022-09-03T05:46:37;23.11;47.68
67502;SHT30;54349;52.528;19.760;2022-09-03T05:49:05;23.08;47.43
67502;SHT30;54349;52.528;19.760;2022-09-03T05:51:35;22.93;47.93
67502;SHT30;54349;52.528;19.760;2022-09-03T05:54:09;22.90;47.96
67502;SHT30;54349;52.528;19.760;2022-09-03T05:56:38;22.92;47.96
67502;SHT30;54349;52.528;19.760;2022-09-03T05:59:08;22.94;47.90
67502;SHT30;54349;52.528;19.760;2022-09-03T06:01:38;22.97;47.90
67502;SHT30;54349;52.528;19.760;2022-09-03T06:04:18;23.00;47.90
67502;SHT30;54349;52.528;19.760;2022-09-03T06:06:47;23.02;47.90
67502;SHT30;54349;52.528;19.760;2022-09-03T06:09:17;23.04;47.85
67502;SHT30;54349;52.528;19.760;2022-09-03T06:11:50;23.06;47.80
67502;SHT30;54349;52.528;19.760;2022-09-03T06:14:20;23.08;47.80
67502;SHT30;54349;52.528;19.760;2022-09-03T06:16:48;23.09;47.68
67502;SHT30;54349;52.528;19.760;2022-09-03T06:19:19;22.94;48.11
67502;SHT30;54349;52.528;19.760;2022-09-03T06:21:47;22.88;48.19
67502;SHT30;54349;52.528;19.760;2022-09-03T06:24:16;22.90;48.17
67502;SHT30;54349;52.528;19.760;2022-09-03T06:26:55;22.93;48.11
67502;SHT30;54349;52.528;19.760;2022-09-03T06:29:24;22.96;48.10
67502;SHT30;54349;52.528;19.760;2022-09-03T06:31:53;22.98;48.06
67502;SHT30;54349;52.528;19.760;2022-09-03T06:34:23;23.02;48.03
67502;SHT30;54349;52.528;19.760;2022-09-03T06:36:53;23.04;48.00
67502;SHT30;54349;52.528;19.760;2022-09-03T06:39:22;23.07;47.97
67502;SHT30;54349;52.528;19.760;2022-09-03T06:41:51;23.09;47.95
67502;SHT30;54349;52.528;19.760;2022-09-03T06:44:24;23.08;47.86
67502;SHT30;54349;52.528;19.760;2022-09-03T06:46:52;22.94;48.30
67502;SHT30;54349;52.528;19.760;2022-09-03T06:49:20;22.89;48.30
67502;SHT30;54349;52.528;19.760;2022-09-03T06:51:49;22.91;48.32
67502;SHT30;54349;52.528;19.760;2022-09-03T06:54:17;22.94;48.29
67502;SHT30;54349;52.528;19.760;2022-09-03T06:56:45;22.96;48.21
67502;SHT30;54349;52.528;19.760;2022-09-03T06:59:13;22.99;48.20
67502;SHT30;54349;52.528;19.760;2022-09-03T07:01:42;23.02;48.16
67502;SHT30;54349;52.528;19.760;2022-09-03T07:04:13;23.05;48.11
67502;SHT30;54349;52.528;19.760;2022-09-03T07:06:46;23.07;48.14
67502;SHT30;54349;52.528;19.760;2022-09-03T07:09:15;23.09;48.07
67502;SHT30;54349;52.528;19.760;2022-09-03T07:11:45;23.05;48.17
67502;SHT30;54349;52.528;19.760;2022-09-03T07:14:16;22.91;48.52
67502;SHT30;54349;52.528;19.760;2022-09-03T07:16:48;22.90;48.50
67502;SHT30;54349;52.528;19.760;2022-09-03T07:19:16;22.92;48.45
67502;SHT30;54349;52.528;19.760;2022-09-03T07:21:46;22.95;48.40
67502;SHT30;54349;52.528;19.760;2022-09-03T07:24:18;22.99;48.34
67502;SHT30;54349;52.528;19.760;2022-09-03T07:26:49;23.02;48.30
67502;SHT30;54349;52.528;19.760;2022-09-03T07:29:17;23.04;48.30
67502;SHT30;54349;52.528;19.760;2022-09-03T07:31:48;23.06;48.25
67502;SHT30;54349;52.528;19.760;2022-09-03T07:34:19;23.08;48.21
67502;SHT30;54349;52.528;19.760;2022-09-03T07:36:53;23.05;48.38
67502;SHT30;54349;52.528;19.760;2022-09-03T07:39:21;22.92;48.72
67502;SHT30;54349;52.528;19.760;2022-09-03T07:41:50;22.92;48.68
67502;SHT30;54349;52.528;19.760;2022-09-03T07:44:18;22.94;48.62
67502;SHT30;54349;52.528;19.760;2022-09-03T07:46:47;22.97;48.58
67502;SHT30;54349;52.528;19.760;2022-09-03T07:49:19;23.01;48.54
67502;SHT30;54349;52.528;19.760;2022-09-03T07:51:49;23.03;48.50
67502;SHT30;54349;52.528;19.760;2022-09-03T07:54:21;23.05;48.46
67502;SHT30;54349;52.528;19.760;2022-09-03T07:56:50;23.07;48.40
67502;SHT30;54349;52.528;19.760;2022-09-03T07:59:20;23.09;48.42
67502;SHT30;54349;52.528;19.760;2022-09-03T08:01:51;22.96;48.92
67502;SHT30;54349;52.528;19.760;2022-09-03T08:04:23;22.91;48.88
67502;SHT30;54349;52.528;19.760;2022-09-03T08:06:52;22.94;48.84
67502;SHT30;54349;52.528;19.760;2022-09-03T08:09:24;22.96;48.76
67502;SHT30;54349;52.528;19.760;2022-09-03T08:11:55;23.00;48.71
67502;SHT30;54349;52.528;19.760;2022-09-03T08:14:25;23.03;48.65
67502;SHT30;54349;52.528;19.760;2022-09-03T08:16:58;23.05;48.59
67502;SHT30;54349;52.528;19.760;2022-09-03T08:19:27;23.08;48.53
67502;SHT30;54349;52.528;19.760;2022-09-03T08:21:57;23.09;48.55
67502;SHT30;54349;52.528;19.760;2022-09-03T08:24:26;22.95;49.10
67502;SHT30;54349;52.528;19.760;2022-09-03T08:26:54;22.92;48.97
67502;SHT30;54349;52.528;19.760;2022-09-03T08:29:23;22.94;48.90
67502;SHT30;54349;52.528;19.760;2022-09-03T08:31:51;22.99;48.85
67502;SHT30;54349;52.528;19.760;2022-09-03T08:34:20;23.02;48.78
67502;SHT30;54349;52.528;19.760;2022-09-03T08:36:48;23.04;48.73
67502;SHT30;54349;52.528;19.760;2022-09-03T08:39:17;23.08;48.69
67502;SHT30;54349;52.528;19.760;2022-09-03T08:44:32;23.07;48.86
67502;SHT30;54349;52.528;19.760;2022-09-03T08:53:02;22.97;49.00
67502;SHT30;54349;52.528;19.760;2022-09-03T08:55:52;23.02;48.93
67502;SHT30;54349;52.528;19.760;2022-09-03T08:58:32;23.05;48.87
67502;SHT30;54349;52.528;19.760;2022-09-03T09:07:16;22.97;49.25
67502;SHT30;54349;52.528;19.760;2022-09-03T09:10:26;22.95;49.17
67502;SHT30;54349;52.528;19.760;2022-09-03T09:22:01;23.12;48.88
67502;SHT30;54349;52.528;19.760;2022-09-03T09:24:44;23.12;48.88
67502;SHT30;54349;52.528;19.760;2022-09-03T09:27:17;23.00;49.32
67502;SHT30;54349;52.528;19.760;2022-09-03T09:29:47;23.00;49.20
67502;SHT30;54349;52.528;19.760;2022-09-03T09:32:18;23.03;49.15
67502;SHT30;54349;52.528;19.760;2022-09-03T09:34:48;23.08;49.21
67502;SHT30;54349;52.528;19.760;2022-09-03T09:37:19;23.13;49.23
67502;SHT30;54349;52.528;19.760;2022-09-03T09:39:55;23.19;48.84
67502;SHT30;54349;52.528;19.760;2022-09-03T09:42:27;23.22;48.54
67502;SHT30;54349;52.528;19.760;2022-09-03T09:45:07;23.15;48.88
67502;SHT30;54349;52.528;19.760;2022-09-03T09:47:38;23.15;49.79
67502;SHT30;54349;52.528;19.760;2022-09-03T09:50:17;23.23;49.97
67502;SHT30;54349;52.528;19.760;2022-09-03T09:53:03;23.30;50.01
67502;SHT30;54349;52.528;19.760;2022-09-03T09:55:48;23.35;49.35
67502;SHT30;54349;52.528;19.760;2022-09-03T09:58:25;23.40;48.74
67502;SHT30;54349;52.528;19.760;2022-09-03T10:03:54;23.27;48.43
67502;SHT30;54349;52.528;19.760;2022-09-03T10:06:28;23.31;48.24
67502;SHT30;54349;52.528;19.760;2022-09-03T10:09:18;23.36;48.11
67502;SHT30;54349;52.528;19.760;2022-09-03T10:14:56;23.42;48.01
67502;SHT30;54349;52.528;19.760;2022-09-03T10:23:36;23.40;47.97
67502;SHT30;54349;52.528;19.760;2022-09-03T10:26:24;23.47;47.85
67502;SHT30;54349;52.528;19.760;2022-09-03T10:29:02;23.50;47.72
67502;SHT30;54349;52.528;19.760;2022-09-03T10:51:05;23.55;48.22
67502;SHT30;54349;52.528;19.760;2022-09-03T11:02:45;23.61;50.25
67502;SHT30;54349;52.528;19.760;2022-09-03T11:06:00;23.69;50.25
67502;SHT30;54349;52.528;19.760;2022-09-03T11:08:53;23.76;50.12
67502;SHT30;54349;52.528;19.760;2022-09-03T11:11:34;23.70;49.90
67502;SHT30;54349;52.528;19.760;2022-09-03T11:14:09;23.66;49.62
67502;SHT30;54349;52.528;19.760;2022-09-03T11:16:44;23.71;49.18
67502;SHT30;54349;52.528;19.760;2022-09-03T11:19:29;23.77;48.92
67502;SHT30;54349;52.528;19.760;2022-09-03T11:22:08;23.80;48.62
67502;SHT30;54349;52.528;19.760;2022-09-03T11:24:40;23.70;48.54
67502;SHT30;54349;52.528;19.760;2022-09-03T11:29:49;23.77;47.76
67502;SHT30;54349;52.528;19.760;2022-09-03T11:35:26;23.87;47.43
67502;SHT30;54349;52.528;19.760;2022-09-03T11:43:52;23.83;47.25
67502;SHT30;54349;52.528;19.760;2022-09-03T11:48:51;23.92;46.44
67502;SHT30;54349;52.528;19.760;2022-09-03T11:51:36;23.81;46.72
67502;SHT30;54349;52.528;19.760;2022-09-03T11:57:21;23.87;46.72
67502;SHT30;54349;52.528;19.760;2022-09-03T11:59:50;23.95;46.21
67502;SHT30;54349;52.528;19.760;2022-09-03T12:02:22;23.92;46.08
67502;SHT30;54349;52.528;19.760;2022-09-03T12:10:58;23.91;45.18
67502;SHT30;54349;52.528;19.760;2022-09-03T12:13:47;23.97;44.84
67502;SHT30;54349;52.528;19.760;2022-09-03T12:16:40;23.83;45.17
67502;SHT30;54349;52.528;19.760;2022-09-03T12:22:12;23.88;45.04
67502;SHT30;54349;52.528;19.760;2022-09-03T12:24:43;23.96;44.59
67502;SHT30;54349;52.528;19.760;2022-09-03T12:27:19;24.00;43.96
67502;SHT30;54349;52.528;19.760;2022-09-03T12:29:54;23.89;44.80
67502;SHT30;54349;52.528;19.760;2022-09-03T12:32:32;23.79;46.16
67502;SHT30;54349;52.528;19.760;2022-09-03T12:38:00;23.97;46.08
67502;SHT30;54349;52.528;19.760;2022-09-03T12:40:40;24.02;45.33
67502;SHT30;54349;52.528;19.760;2022-09-03T12:43:30;23.95;44.67
67502;SHT30;54349;52.528;19.760;2022-09-03T12:46:12;23.83;45.06
67502;SHT30;54349;52.528;19.760;2022-09-03T12:48:56;23.88;44.96
67502;SHT30;54349;52.528;19.760;2022-09-03T12:51:56;23.99;44.35
67502;SHT30;54349;52.528;19.760;2022-09-03T12:54:33;24.07;43.65
67502;SHT30;54349;52.528;19.760;2022-09-03T12:57:19;24.01;43.38
67502;SHT30;54349;52.528;19.760;2022-09-03T12:59:53;23.84;43.61
67502;SHT30;54349;52.528;19.760;2022-09-03T13:02:29;23.72;44.12
67502;SHT30;54349;52.528;19.760;2022-09-03T13:05:44;23.79;45.65
67502;SHT30;54349;52.528;19.760;2022-09-03T13:08:29;23.92;45.88
67502;SHT30;54349;52.528;19.760;2022-09-03T13:11:16;24.03;45.49
67502;SHT30;54349;52.528;19.760;2022-09-03T13:14:00;24.06;44.90
67502;SHT30;54349;52.528;19.760;2022-09-03T13:19:07;23.78;44.88
67502;SHT30;54349;52.528;19.760;2022-09-03T13:27:41;23.97;43.48
67502;SHT30;54349;52.528;19.760;2022-09-03T13:30:21;23.99;42.49
67502;SHT30;54349;52.528;19.760;2022-09-03T13:36:25;23.67;44.16
67502;SHT30;54349;52.528;19.760;2022-09-03T13:39:02;23.64;44.45
67502;SHT30;54349;52.528;19.760;2022-09-03T13:44:36;23.86;43.35
67502;SHT30;54349;52.528;19.760;2022-09-03T13:50:15;23.96;42.35
67502;SHT30;54349;52.528;19.760;2022-09-03T13:52:55;23.78;43.06
67502;SHT30;54349;52.528;19.760;2022-09-03T14:01:18;23.99;44.13
67502;SHT30;54349;52.528;19.760;2022-09-03T14:04:24;24.08;44.23
67502;SHT30;54349;52.528;19.760;2022-09-03T14:07:12;23.95;44.41
67502;SHT30;54349;52.528;19.760;2022-09-03T14:19:14;24.13;43.36
67502;SHT30;54349;52.528;19.760;2022-09-03T14:22:00;24.05;43.48
67502;SHT30;54349;52.528;19.760;2022-09-03T14:24:44;23.89;43.86
67502;SHT30;54349;52.528;19.760;2022-09-03T14:27:22;23.88;44.05
67502;SHT30;54349;52.528;19.760;2022-09-03T14:30:00;23.97;43.75
67502;SHT30;54349;52.528;19.760;2022-09-03T14:35:34;24.11;43.45
67502;SHT30;54349;52.528;19.760;2022-09-03T14:38:45;24.00;43.73
67502;SHT30;54349;52.528;19.760;2022-09-03T14:45:01;24.14;43.75
67502;SHT30;54349;52.528;19.760;2022-09-03T14:51:15;24.13;43.63
67502;SHT30;54349;52.528;19.760;2022-09-03T14:54:23;24.03;43.53
67502;SHT30;54349;52.528;19.760;2022-09-03T15:06:46;24.10;43.30
67502;SHT30;54349;52.528;19.760;2022-09-03T15:09:34;24.11;43.24
67502;SHT30;54349;52.528;19.760;2022-09-03T15:12:32;24.21;43.02
67502;SHT30;54349;52.528;19.760;2022-09-03T15:15:19;24.31;42.85
67502;SHT30;54349;52.528;19.760;2022-09-03T15:24:10;24.13;43.02
67502;SHT30;54349;52.528;19.760;2022-09-03T15:30:20;24.32;42.55
67502;SHT30;54349;52.528;19.760;2022-09-03T15:38:59;24.18;42.65
67502;SHT30;54349;52.528;19.760;2022-09-03T15:41:58;24.27;42.38
67502;SHT30;54349;52.528;19.760;2022-09-03T15:44:41;24.34;42.22
67502;SHT30;54349;52.528;19.760;2022-09-03T15:52:55;24.19;42.38
67502;SHT30;54349;52.528;19.760;2022-09-03T15:55:34;24.27;42.23
67502;SHT30;54349;52.528;19.760;2022-09-03T16:01:10;24.28;42.38
67502;SHT30;54349;52.528;19.760;2022-09-03T16:04:02;24.15;42.76
67502;SHT30;54349;52.528;19.760;2022-09-03T16:07:02;24.20;42.76
67502;SHT30;54349;52.528;19.760;2022-09-03T16:09:55;24.28;42.64
67502;SHT30;54349;52.528;19.760;2022-09-03T16:16:03;24.21;42.80
67502;SHT30;54349;52.528;19.760;2022-09-03T16:21:20;24.20;42.80
67502;SHT30;54349;52.528;19.760;2022-09-03T16:27:08;24.27;42.56
67502;SHT30;54349;52.528;19.760;2022-09-03T16:29:55;24.13;42.93
67502;SHT30;54349;52.528;19.760;2022-09-03T16:32:56;24.13;42.89
67502;SHT30;54349;52.528;19.760;2022-09-03T16:46:45;24.07;42.84
67502;SHT30;54349;52.528;19.760;2022-09-03T16:49:35;24.13;42.66
67502;SHT30;54349;52.528;19.760;2022-09-03T16:56:09;24.10;42.63
67502;SHT30;54349;52.528;19.760;2022-09-03T16:59:04;24.03;42.75
67502;SHT30;54349;52.528;19.760;2022-09-03T17:04:53;24.14;42.48
67502;SHT30;54349;52.528;19.760;2022-09-03T17:13:57;24.00;42.69
67502;SHT30;54349;52.528;19.760;2022-09-03T17:22:57;24.00;42.64
67502;SHT30;54349;52.528;19.760;2022-09-03T17:25:37;23.96;42.76
67502;SHT30;54349;52.528;19.760;2022-09-03T17:46:38;24.00;42.54
67502;SHT30;54349;52.528;19.760;2022-09-03T17:55:44;23.89;42.86
67502;SHT30;54349;52.528;19.760;2022-09-03T18:01:18;23.91;42.83
67502;SHT30;54349;52.528;19.760;2022-09-03T18:03:54;23.78;43.15
67502;SHT30;54349;52.528;19.760;2022-09-03T18:11:53;23.87;42.96
67502;SHT30;54349;52.528;19.760;2022-09-03T18:14:43;23.89;42.90
67502;SHT30;54349;52.528;19.760;2022-09-03T18:17:27;23.74;43.22
67502;SHT30;54349;52.528;19.760;2022-09-03T18:20:06;23.72;43.33
67502;SHT30;54349;52.528;19.760;2022-09-03T18:26:11;23.80;43.18
67502;SHT30;54349;52.528;19.760;2022-09-03T18:29:15;23.83;43.07
67502;SHT30;54349;52.528;19.760;2022-09-03T18:32:20;23.66;43.34
67502;SHT30;54349;52.528;19.760;2022-09-03T18:35:08;23.63;43.42
67502;SHT30;54349;52.528;19.760;2022-09-03T18:37:56;23.68;43.32
67502;SHT30;54349;52.528;19.760;2022-09-03T18:56:45;23.61;43.50
67502;SHT30;54349;52.528;19.760;2022-09-03T18:59:57;23.65;43.54
67502;SHT30;54349;52.528;19.760;2022-09-03T19:15:51;23.56;43.85
67502;SHT30;54349;52.528;19.760;2022-09-03T19:22:11;23.43;44.01
67502;SHT30;54349;52.528;19.760;2022-09-03T19:25:10;23.38;44.15
67502;SHT30;54349;52.528;19.760;2022-09-03T19:40:43;23.31;43.80
67502;SHT30;54349;52.528;19.760;2022-09-03T19:43:40;23.33;43.85
67502;SHT30;54349;52.528;19.760;2022-09-03T19:46:49;23.37;43.76
67502;SHT30;54349;52.528;19.760;2022-09-03T19:49:47;23.41;43.80
67502;SHT30;54349;52.528;19.760;2022-09-03T19:52:59;23.44;43.61
67502;SHT30;54349;52.528;19.760;2022-09-03T19:55:52;23.39;43.16
67502;SHT30;54349;52.528;19.760;2022-09-03T19:58:44;23.14;43.77
67502;SHT30;54349;52.528;19.760;2022-09-03T20:01:37;23.17;43.86
67502;SHT30;54349;52.528;19.760;2022-09-03T20:04:29;23.21;43.89
67502;SHT30;54349;52.528;19.760;2022-09-03T20:07:21;23.25;43.79
67502;SHT30;54349;52.528;19.760;2022-09-03T20:10:09;23.31;43.88
67502;SHT30;54349;52.528;19.760;2022-09-03T20:15:50;23.39;43.91
67502;SHT30;54349;52.528;19.760;2022-09-03T20:27:47;23.35;44.10
67502;SHT30;54349;52.528;19.760;2022-09-03T20:30:19;23.41;43.75
67502;SHT30;54349;52.528;19.760;2022-09-03T20:45:12;23.35;43.19
67502;SHT30;54349;52.528;19.760;2022-09-03T20:51:13;23.40;42.91
67502;SHT30;54349;52.528;19.760;2022-09-03T20:54:08;23.22;43.45
67502;SHT30;54349;52.528;19.760;2022-09-03T21:14:42;23.27;43.12
67502;SHT30;54349;52.528;19.760;2022-09-03T21:23:21;23.43;42.80
67502;SHT30;54349;52.528;19.760;2022-09-03T21:25:57;23.35;42.72
67502;SHT30;54349;52.528;19.760;2022-09-03T21:28:37;23.22;43.35
67502;SHT30;54349;52.528;19.760;2022-09-03T21:31:23;23.25;43.13
67502;SHT30;54349;52.528;19.760;2022-09-03T21:34:10;23.32;42.84
67502;SHT30;54349;52.528;19.760;2022-09-03T21:36:46;23.37;42.68
67502;SHT30;54349;52.528;19.760;2022-09-03T21:44:54;23.39;42.24
67502;SHT30;54349;52.528;19.760;2022-09-03T21:47:41;23.24;42.88
67502;SHT30;54349;52.528;19.760;2022-09-03T21:50:18;23.28;42.89
67502;SHT30;54349;52.528;19.760;2022-09-03T21:53:01;23.34;42.72
67502;SHT30;54349;52.528;19.760;2022-09-03T22:01:43;23.47;42.28
67502;SHT30;54349;52.528;19.760;2022-09-03T22:04:48;23.25;42.89
67502;SHT30;54349;52.528;19.760;2022-09-03T22:10:41;23.33;42.68
67502;SHT30;54349;52.528;19.760;2022-09-03T22:15:54;23.44;42.51
67502;SHT30;54349;52.528;19.760;2022-09-03T22:18:40;23.46;42.41
67502;SHT30;54349;52.528;19.760;2022-09-03T22:21:12;23.30;42.73
67502;SHT30;54349;52.528;19.760;2022-09-03T22:24:05;23.25;43.06
67502;SHT30;54349;52.528;19.760;2022-09-03T22:26:54;23.33;43.00
67502;SHT30;54349;52.528;19.760;2022-09-03T22:43:38;23.50;45.08
67502;SHT30;54349;52.528;19.760;2022-09-03T22:46:13;23.61;45.34
67502;SHT30;54349;52.528;19.760;2022-09-03T22:57:53;23.61;47.18
67502;SHT30;54349;52.528;19.760;2022-09-03T23:00:33;23.73;47.56
67502;SHT30;54349;52.528;19.760;2022-09-03T23:03:18;23.67;46.76
67502;SHT30;54349;52.528;19.760;2022-09-03T23:06:03;23.43;47.59
67502;SHT30;54349;52.528;19.760;2022-09-03T23:08:46;23.51;47.79
67502;SHT30;54349;52.528;19.760;2022-09-03T23:11:23;23.64;47.88
67502;SHT30;54349;52.528;19.760;2022-09-03T23:14:01;23.75;48.04
67502;SHT30;54349;52.528;19.760;2022-09-03T23:16:51;23.79;47.41
67502;SHT30;54349;52.528;19.760;2022-09-03T23:23:33;23.55;48.47
67502;SHT30;54349;52.528;19.760;2022-09-03T23:25:42;23.70;48.68
67502;SHT30;54349;52.528;19.760;2022-09-03T23:31:20;23.61;47.49
67502;SHT30;54349;52.528;19.760;2022-09-03T23:33:51;23.41;48.43
67502;SHT30;54349;52.528;19.760;2022-09-03T23:54:36;23.74;48.23
67502;SHT30;54349;52.528;19.760;2022-09-03T23:57:19;23.86;47.93
